createdAt,value
2023-04-02T00:00:19.627Z,95690.72
2023-04-02T00:02:57.543Z,95707.88
2023-04-02T00:05:51.252Z,95614.72
2023-04-02T00:08:24.868Z,95731.13
2023-04-02T00:10:55.870Z,95729.47
2023-04-02T00:13:34.010Z,95650.16
2023-04-02T00:16:05.082Z,95717.41
2023-04-02T00:18:35.636Z,95720.00
2023-04-02T00:21:13.008Z,95706.44
2023-04-02T00:23:43.912Z,95736.66
2023-04-02T00:26:31.501Z,95722.13
2023-04-02T00:29:02.719Z,95687.63
2023-04-02T00:31:32.170Z,95748.44
2023-04-02T00:34:02.694Z,95699.06
2023-04-02T00:36:35.017Z,95691.88
2023-04-02T00:39:06.051Z,95758.94
2023-04-02T00:41:36.094Z,95694.66
2023-04-02T00:44:06.953Z,95725.91
2023-04-02T00:46:46.991Z,95749.75
2023-04-02T00:49:24.109Z,95736.38
2023-04-02T00:51:56.170Z,95749.91
2023-04-02T00:54:32.489Z,95845.00
2023-04-02T00:57:01.335Z,95775.25
2023-04-02T00:59:33.918Z,95736.38
2023-04-02T01:02:22.552Z,95764.16
2023-04-02T01:04:54.913Z,95719.34
2023-04-02T01:07:39.368Z,95737.16
2023-04-02T01:10:35.047Z,95540.94
2023-04-02T01:13:16.886Z,95749.59
2023-04-02T01:15:54.583Z,95765.94
2023-04-02T01:18:37.010Z,95745.50
2023-04-02T01:21:21.907Z,95740.94
2023-04-02T01:24:01.817Z,95774.94
2023-04-02T01:26:47.122Z,95856.97
2023-04-02T01:29:20.029Z,95795.22
2023-04-02T01:31:50.395Z,95735.38
2023-04-02T01:34:25.055Z,95748.13
2023-04-02T01:37:23.017Z,95798.47
2023-04-02T01:40:11.487Z,95756.94
2023-04-02T01:42:50.514Z,95736.34
2023-04-02T01:45:23.105Z,95782.75
2023-04-02T01:47:51.784Z,95633.78
2023-04-02T01:50:31.776Z,95725.69
2023-04-02T01:53:03.949Z,95750.38
2023-04-02T01:55:41.947Z,95784.84
2023-04-02T01:58:12.450Z,95764.41
2023-04-02T02:00:49.232Z,95792.22
2023-04-02T02:03:18.569Z,95843.91
2023-04-02T02:06:00.398Z,95803.34
2023-04-02T02:08:35.733Z,95781.13
2023-04-02T02:11:05.198Z,95809.22
2023-04-02T02:13:33.604Z,95786.63
2023-04-02T02:16:06.074Z,95800.38
2023-04-02T02:18:34.909Z,95777.81
2023-04-02T02:21:09.083Z,95833.78
2023-04-02T02:23:37.902Z,95708.66
2023-04-02T02:26:07.805Z,95801.09
2023-04-02T02:28:41.204Z,95736.88
2023-04-02T02:31:17.820Z,95805.97
2023-04-02T02:33:51.797Z,95825.06
2023-04-02T02:36:28.114Z,95855.34
2023-04-02T02:39:08.563Z,95796.13
2023-04-02T02:41:47.140Z,95733.34
2023-04-02T02:44:19.849Z,95847.16
2023-04-02T02:46:52.760Z,95851.75
2023-04-02T02:49:28.942Z,95785.56
2023-04-02T02:52:04.755Z,95843.38
2023-04-02T02:54:45.172Z,95833.44
2023-04-02T02:57:17.887Z,95847.13
2023-04-02T02:59:47.445Z,95827.81
2023-04-02T03:02:18.062Z,95819.34
2023-04-02T03:04:49.658Z,95853.00
2023-04-02T03:07:19.763Z,95862.03
2023-04-02T03:09:55.773Z,95829.47
2023-04-02T03:12:38.098Z,95821.94
2023-04-02T03:15:20.031Z,95795.19
2023-04-02T03:17:57.546Z,95854.44
2023-04-02T03:20:34.678Z,95821.25
2023-04-02T03:23:13.016Z,95866.03
2023-04-02T03:25:45.401Z,95832.69
2023-04-02T03:28:18.301Z,95845.19
2023-04-02T03:30:53.735Z,95885.06
2023-04-02T03:33:28.201Z,95839.41
2023-04-02T03:36:04.610Z,95849.03
2023-04-02T03:38:43.542Z,95857.53
2023-04-02T03:41:19.978Z,95820.16
2023-04-02T03:43:53.379Z,95889.00
2023-04-02T03:46:28.667Z,95857.75
2023-04-02T03:49:03.714Z,95842.19
2023-04-02T03:51:37.440Z,95878.34
2023-04-02T03:54:06.447Z,95876.75
2023-04-02T03:56:40.973Z,95879.16
2023-04-02T03:59:23.173Z,95904.50
2023-04-02T04:01:59.912Z,95847.41
2023-04-02T04:04:32.634Z,95854.09
2023-04-02T04:07:02.492Z,95874.66
2023-04-02T04:09:34.366Z,95855.25
2023-04-02T04:12:14.000Z,95860.41
2023-04-02T04:14:47.367Z,95909.19
2023-04-02T04:17:24.831Z,95888.59
2023-04-02T04:20:08.242Z,95873.41
2023-04-02T04:22:37.829Z,95944.53
2023-04-02T04:25:23.742Z,95916.38
2023-04-02T04:28:08.222Z,95895.44
2023-04-02T04:30:51.350Z,95951.34
2023-04-02T04:33:26.488Z,95958.22
2023-04-02T04:36:03.040Z,95913.91
2023-04-02T04:38:39.180Z,95911.75
2023-04-02T04:41:15.661Z,95892.00
2023-04-02T04:43:51.821Z,95938.34
2023-04-02T04:46:28.908Z,95916.47
2023-04-02T04:49:03.830Z,95861.47
2023-04-02T04:51:40.915Z,95976.88
2023-04-02T04:54:13.998Z,95834.72
2023-04-02T04:56:49.223Z,95933.28
2023-04-02T04:59:23.804Z,95933.06
2023-04-02T05:02:01.941Z,95937.63
2023-04-02T05:04:35.697Z,95969.25
2023-04-02T05:07:10.726Z,95957.72
2023-04-02T05:09:44.035Z,95944.16
2023-04-02T05:12:27.756Z,95967.41
2023-04-02T05:15:01.700Z,95949.78
2023-04-02T05:17:36.583Z,95972.69
2023-04-02T05:20:16.267Z,95979.53
2023-04-02T05:22:55.559Z,95996.72
2023-04-02T05:25:28.578Z,96007.28
2023-04-02T05:28:06.811Z,95957.00
2023-04-02T05:30:53.096Z,96008.97
2023-04-02T05:33:28.152Z,95962.22
2023-04-02T05:36:02.316Z,95952.75
2023-04-02T05:38:35.922Z,96030.44
2023-04-02T05:41:08.911Z,95989.00
2023-04-02T05:43:39.278Z,96015.69
2023-04-02T05:46:18.326Z,95981.16
2023-04-02T05:48:52.984Z,96024.03
2023-04-02T05:51:29.144Z,96032.31
2023-04-02T05:54:02.409Z,96036.66
2023-04-02T05:56:36.773Z,96036.50
2023-04-02T05:59:12.379Z,96018.31
2023-04-02T06:01:47.233Z,96069.19
2023-04-02T06:04:27.193Z,96036.06
2023-04-02T06:07:02.875Z,96039.88
2023-04-02T06:09:40.609Z,96054.94
2023-04-02T06:12:20.978Z,96085.97
2023-04-02T06:14:49.526Z,96059.28
2023-04-02T06:17:20.285Z,96088.88
2023-04-02T06:19:54.321Z,96080.88
2023-04-02T06:22:28.166Z,96041.13
2023-04-02T06:25:05.308Z,96090.63
2023-04-02T06:27:40.757Z,96076.41
2023-04-02T06:30:18.860Z,96110.56
2023-04-02T06:32:50.423Z,96092.88
2023-04-02T06:35:20.459Z,96108.16
2023-04-02T06:38:01.527Z,96017.72
2023-04-02T06:40:42.802Z,96097.06
2023-04-02T06:43:33.362Z,96068.13
2023-04-02T06:46:33.876Z,96094.50
2023-04-02T06:49:18.981Z,96062.59
2023-04-02T06:51:50.747Z,95945.81
2023-04-02T06:54:20.362Z,96089.13
2023-04-02T06:56:57.142Z,96020.50
2023-04-02T06:59:41.164Z,96160.78
2023-04-02T07:02:35.759Z,96090.31
2023-04-02T07:05:09.844Z,96103.00
2023-04-02T07:07:42.251Z,96126.53
2023-04-02T07:10:13.815Z,96113.47
2023-04-02T07:12:43.560Z,96112.69
2023-04-02T07:15:16.946Z,96171.50
2023-04-02T07:17:45.662Z,96131.03
2023-04-02T07:20:28.518Z,96096.44
2023-04-02T07:22:58.455Z,96136.19
2023-04-02T07:25:28.252Z,96175.16
2023-04-02T07:27:57.993Z,96142.44
2023-04-02T07:30:26.232Z,96136.59
2023-04-02T07:32:54.861Z,96145.22
2023-04-02T07:35:23.054Z,96142.94
2023-04-02T07:37:52.850Z,96161.44
2023-04-02T07:40:24.246Z,96160.00
2023-04-02T07:42:52.783Z,96186.03
2023-04-02T07:45:22.437Z,96153.63
2023-04-02T07:47:51.453Z,96139.91
2023-04-02T07:50:20.094Z,96172.34
2023-04-02T07:52:48.282Z,96162.56
2023-04-02T07:55:17.768Z,96176.63
2023-04-02T07:57:51.648Z,96212.25
2023-04-02T08:00:24.502Z,96232.72
2023-04-02T08:02:53.014Z,96226.44
2023-04-02T08:05:22.503Z,96159.84
2023-04-02T08:07:55.088Z,96207.63
2023-04-02T08:10:24.105Z,96222.53
2023-04-02T08:12:52.566Z,96164.00
2023-04-02T08:15:22.256Z,96166.53
2023-04-02T08:17:51.463Z,96098.06
2023-04-02T08:20:23.086Z,96183.16
2023-04-02T08:22:51.725Z,96181.81
2023-04-02T08:25:19.982Z,96227.25
2023-04-02T08:27:49.609Z,96194.47
2023-04-02T08:30:19.361Z,96204.13
2023-04-02T08:32:49.117Z,96204.91
2023-04-02T08:35:19.224Z,96228.69
2023-04-02T08:37:47.439Z,96254.72
2023-04-02T08:40:24.366Z,96235.25
2023-04-02T08:43:14.124Z,96225.59
2023-04-02T08:45:57.279Z,96224.34
2023-04-02T08:48:27.144Z,96260.81
2023-04-02T08:50:55.523Z,96241.81
2023-04-02T08:53:27.294Z,96273.78
2023-04-02T08:56:05.390Z,96223.06
2023-04-02T08:58:42.947Z,96278.75
2023-04-02T09:01:24.666Z,96306.94
2023-04-02T09:03:59.093Z,96263.38
2023-04-02T09:06:29.302Z,96253.50
2023-04-02T09:09:00.165Z,96305.00
2023-04-02T09:11:37.192Z,96178.94
2023-04-02T09:14:13.600Z,96252.53
2023-04-02T09:16:46.374Z,96274.66
2023-04-02T09:19:22.689Z,96280.75
2023-04-02T09:22:07.577Z,96250.44
2023-04-02T09:24:37.868Z,96321.38
2023-04-02T09:27:17.609Z,96359.16
2023-04-02T09:29:48.547Z,96307.59
2023-04-02T09:32:41.535Z,96330.13
2023-04-02T09:35:25.495Z,96308.88
2023-04-02T09:38:21.622Z,96319.03
2023-04-02T09:41:00.771Z,96326.28
2023-04-02T09:43:30.651Z,96359.44
2023-04-02T09:46:04.601Z,96330.94
2023-04-02T09:48:36.856Z,96289.09
2023-04-02T09:51:16.598Z,96303.13
2023-04-02T09:53:47.238Z,96313.75
2023-04-02T09:56:19.404Z,96268.03
2023-04-02T09:59:05.483Z,96301.56
2023-04-02T10:01:36.707Z,96232.16
2023-04-02T10:04:38.573Z,96347.00
2023-04-02T10:07:09.019Z,96344.56
2023-04-02T10:09:39.522Z,96348.44
2023-04-02T10:12:13.787Z,96345.88
2023-04-02T10:14:46.009Z,96310.59
2023-04-02T10:17:19.802Z,96349.22
2023-04-02T10:19:52.173Z,96350.38
2023-04-02T10:22:24.264Z,96321.75
2023-04-02T10:24:52.887Z,96314.25
2023-04-02T10:27:30.568Z,96339.19
2023-04-02T10:30:17.879Z,96369.56
2023-04-02T10:32:51.794Z,96367.44
2023-04-02T10:35:39.711Z,96349.41
2023-04-02T10:38:32.506Z,96337.22
2023-04-02T10:41:07.872Z,96369.59
2023-04-02T10:43:53.557Z,96351.66
2023-04-02T10:46:27.659Z,96355.88
2023-04-02T10:49:06.161Z,96392.22
2023-04-02T10:51:43.083Z,96399.34
2023-04-02T10:54:38.988Z,96359.31
2023-04-02T10:57:15.985Z,96420.78
2023-04-02T10:59:52.453Z,96423.50
2023-04-02T11:02:37.574Z,96398.81
2023-04-02T11:05:19.747Z,96422.50
2023-04-02T11:08:02.457Z,96414.25
2023-04-02T11:10:36.725Z,96396.22
2023-04-02T11:13:13.044Z,96423.00
2023-04-02T11:15:41.570Z,96442.03
2023-04-02T11:18:24.885Z,96409.84
2023-04-02T11:21:00.536Z,96403.09
2023-04-02T11:23:33.063Z,96369.97
2023-04-02T11:26:41.267Z,96407.66
2023-04-02T11:29:27.608Z,96427.63
2023-04-02T11:32:39.420Z,96444.50
2023-04-02T11:35:37.829Z,96448.53
2023-04-02T11:38:52.951Z,96451.91
2023-04-02T11:42:02.868Z,96450.09
2023-04-02T11:44:31.158Z,96407.44
2023-04-02T11:47:21.799Z,96470.66
2023-04-02T11:50:29.468Z,96456.91
2023-04-02T11:53:02.788Z,96458.03
2023-04-02T11:55:33.686Z,96399.25
2023-04-02T11:58:58.376Z,96508.69
2023-04-02T12:05:14.684Z,96490.28
2023-04-02T12:08:05.709Z,96493.25
2023-04-02T12:10:35.586Z,96512.00
2023-04-02T12:13:03.817Z,96473.56
2023-04-02T12:15:50.476Z,96522.19
2023-04-02T12:18:23.922Z,96494.00
2023-04-02T12:20:55.156Z,96551.47
2023-04-02T12:23:29.223Z,96486.00
2023-04-02T12:25:59.754Z,96524.44
2023-04-02T12:28:30.046Z,96513.16
2023-04-02T12:31:13.600Z,96551.50
2023-04-02T12:33:43.838Z,96537.13
2023-04-02T12:36:21.475Z,96563.94
2023-04-02T12:38:52.395Z,96554.13
2023-04-02T12:41:25.028Z,96540.31
2023-04-02T12:44:00.393Z,96512.41
2023-04-02T12:46:29.717Z,96547.78
2023-04-02T12:49:06.692Z,96554.00
2023-04-02T12:51:37.084Z,96519.66
2023-04-02T12:54:06.168Z,96584.63
2023-04-02T12:56:34.403Z,96514.00
2023-04-02T12:59:02.880Z,96555.94
2023-04-02T13:01:33.948Z,96551.50
2023-04-02T13:04:07.323Z,96589.72
2023-04-02T13:06:37.496Z,96534.84
2023-04-02T13:09:08.082Z,96575.78
2023-04-02T13:11:38.440Z,96534.78
2023-04-02T13:14:09.510Z,96562.47
2023-04-02T13:16:40.746Z,96567.09
2023-04-02T13:19:26.119Z,96585.19
2023-04-02T13:21:55.174Z,96556.09
2023-04-02T13:24:25.746Z,96571.63
2023-04-02T13:26:57.559Z,96471.72
2023-04-02T13:29:28.804Z,96605.75
2023-04-02T13:32:01.180Z,96633.41
2023-04-02T13:34:31.346Z,96603.00
2023-04-02T13:37:00.055Z,96635.97
2023-04-02T13:39:30.248Z,96617.22
2023-04-02T13:42:00.437Z,96593.03
2023-04-02T13:44:30.737Z,96576.75
2023-04-02T13:47:02.724Z,96599.22
2023-04-02T13:49:33.200Z,96608.59
2023-04-02T13:52:05.101Z,96616.03
2023-04-02T13:54:41.643Z,96604.47
2023-04-02T13:57:10.038Z,96612.34
2023-04-02T13:59:38.450Z,96611.00
2023-04-02T14:02:11.516Z,96591.00
2023-04-02T14:04:47.054Z,96633.59
2023-04-02T14:07:36.636Z,96635.97
2023-04-02T14:10:19.250Z,96664.44
2023-04-02T14:13:13.226Z,96658.97
2023-04-02T14:15:59.216Z,96633.44
2023-04-02T14:18:51.675Z,96643.56
2023-04-02T14:21:31.184Z,96609.50
2023-04-02T14:24:17.235Z,96653.25
2023-04-02T14:26:59.564Z,96635.69
2023-04-02T14:29:35.236Z,96616.06
2023-04-02T14:32:08.994Z,96668.97
2023-04-02T14:34:45.313Z,96597.72
2023-04-02T14:37:21.944Z,96650.16
2023-04-02T14:40:03.775Z,96664.47
2023-04-02T14:42:36.121Z,96670.06
2023-04-02T14:45:10.895Z,96690.44
2023-04-02T14:47:44.553Z,96680.19
2023-04-02T14:50:16.637Z,96635.50
2023-04-02T14:52:52.607Z,96665.03
2023-04-02T14:55:32.771Z,96680.63
2023-04-02T14:58:05.348Z,96697.47
2023-04-02T15:00:39.982Z,96715.56
2023-04-02T15:03:17.518Z,96672.53
2023-04-02T15:05:49.202Z,96640.09
2023-04-02T15:08:23.514Z,96666.53
2023-04-02T15:11:06.617Z,96699.31
2023-04-02T15:13:41.017Z,96651.66
2023-04-02T15:16:16.267Z,96691.75
2023-04-02T15:18:44.590Z,96685.13
2023-04-02T15:21:43.437Z,96674.94
2023-04-02T15:24:31.511Z,96705.19
2023-04-02T15:27:24.477Z,96682.41
2023-04-02T15:30:00.898Z,96731.44
2023-04-02T15:32:38.244Z,96755.97
2023-04-02T15:35:21.865Z,96695.38
2023-04-02T15:37:59.707Z,96736.44
2023-04-02T15:40:50.577Z,96731.19
2023-04-02T15:43:25.584Z,96739.44
2023-04-02T15:46:15.892Z,96726.78
2023-04-02T15:49:04.794Z,96752.66
2023-04-02T15:51:49.997Z,96754.31
2023-04-02T15:54:37.101Z,96752.38
2023-04-02T15:57:21.043Z,96761.47
2023-04-02T16:00:15.450Z,96826.44
2023-04-02T16:03:17.335Z,96778.84
2023-04-02T16:05:58.701Z,96783.53
2023-04-02T16:08:43.065Z,96786.97
2023-04-02T16:11:13.121Z,96790.13
2023-04-02T16:13:43.990Z,96730.28
2023-04-02T16:16:17.276Z,96751.53
2023-04-02T16:18:54.680Z,96827.22
2023-04-02T16:21:25.214Z,96782.47
2023-04-02T16:23:53.781Z,96800.47
2023-04-02T16:26:45.336Z,96824.19
2023-04-02T16:29:58.176Z,96812.56
2023-04-02T16:32:46.353Z,96771.41
2023-04-02T16:38:07.780Z,96863.63
2023-04-02T16:40:43.762Z,96865.88
2023-04-02T16:43:24.261Z,96792.81
2023-04-02T16:46:02.002Z,96643.88
2023-04-02T16:48:41.286Z,96827.03
2023-04-02T16:51:21.166Z,96849.91
2023-04-02T16:54:02.032Z,96835.75
2023-04-02T16:56:45.958Z,96866.91
2023-04-02T16:59:26.480Z,96827.59
2023-04-02T17:02:04.027Z,96865.38
2023-04-02T17:04:58.795Z,96886.78
2023-04-02T17:07:36.465Z,96861.47
2023-04-02T17:10:23.626Z,96903.06
2023-04-02T17:13:03.209Z,96866.91
2023-04-02T17:15:39.033Z,96730.28
2023-04-02T17:18:19.829Z,96907.84
2023-04-02T17:20:49.998Z,96885.81
2023-04-02T17:23:20.470Z,96910.09
2023-04-02T17:25:55.137Z,96899.72
2023-04-02T17:28:29.606Z,96863.69
2023-04-02T17:31:01.306Z,96996.38
2023-04-02T17:33:31.118Z,96926.31
2023-04-02T17:36:26.080Z,96941.47
2023-04-02T17:39:06.025Z,97005.03
2023-04-02T17:41:41.510Z,96952.88
2023-04-02T17:44:29.707Z,96937.19
2023-04-02T17:47:09.606Z,96978.41
2023-04-02T17:49:51.094Z,96901.09
2023-04-02T17:52:25.034Z,96922.28
2023-04-02T17:55:03.578Z,96992.25
2023-04-02T17:57:55.020Z,96987.28
2023-04-02T18:00:39.787Z,96948.91
2023-04-02T18:03:30.040Z,97023.78
2023-04-02T18:06:06.440Z,97017.38
2023-04-02T18:08:42.911Z,97006.97
2023-04-02T18:11:15.532Z,96969.63
2023-04-02T18:13:49.886Z,96974.81
2023-04-02T18:16:44.256Z,97023.66
2023-04-02T18:19:19.136Z,96932.31
2023-04-02T18:21:55.734Z,96994.16
2023-04-02T18:25:15.136Z,97026.50
2023-04-02T18:28:10.646Z,97021.06
2023-04-02T18:30:46.344Z,97068.63
2023-04-02T18:33:33.750Z,97130.22
2023-04-02T18:36:08.001Z,97027.09
2023-04-02T18:38:45.683Z,97088.75
2023-04-02T18:41:38.378Z,97084.25
2023-04-02T18:44:26.621Z,97056.28
2023-04-02T18:46:59.814Z,97035.25
2023-04-02T18:49:33.975Z,97063.31
2023-04-02T18:52:06.883Z,97015.69
2023-04-02T18:54:41.434Z,97087.06
2023-04-02T18:57:14.955Z,97047.97
2023-04-02T18:59:49.940Z,97103.19
2023-04-02T19:02:39.043Z,97027.31
2023-04-02T19:05:16.312Z,97092.84
2023-04-02T19:07:46.779Z,97077.66
2023-04-02T19:10:29.591Z,97090.31
2023-04-02T19:12:57.953Z,97093.81
2023-04-02T19:15:36.607Z,97115.78
2023-04-02T19:18:16.594Z,97112.53
2023-04-02T19:20:52.934Z,97141.34
2023-04-02T19:23:40.800Z,97117.25
2023-04-02T19:26:14.764Z,97108.63
2023-04-02T19:28:54.200Z,97131.09
2023-04-02T19:31:44.931Z,97137.44
2023-04-02T19:34:21.932Z,97075.22
2023-04-02T19:36:55.743Z,97177.97
2023-04-02T19:40:04.760Z,97142.75
2023-04-02T19:42:49.517Z,97153.41
2023-04-02T19:45:35.908Z,97156.34
2023-04-02T19:48:14.404Z,97175.03
2023-04-02T19:50:43.191Z,97144.50
2023-04-02T19:53:11.657Z,97161.53
2023-04-02T19:55:40.382Z,97181.75
2023-04-02T19:58:20.154Z,97139.94
2023-04-02T20:00:48.823Z,97151.81
2023-04-02T20:03:41.623Z,97174.28
2023-04-02T20:06:24.801Z,97166.22
2023-04-02T20:08:53.236Z,97185.09
2023-04-02T20:11:21.432Z,97010.25
2023-04-02T20:13:51.390Z,97155.34
2023-04-02T20:16:19.646Z,97196.66
2023-04-02T20:18:48.217Z,97200.09
2023-04-02T20:21:16.484Z,97154.38
2023-04-02T20:23:44.788Z,97171.53
2023-04-02T20:26:13.532Z,97161.41
2023-04-02T20:28:41.766Z,97137.75
2023-04-02T20:31:13.882Z,97130.22
2023-04-02T20:33:42.350Z,97146.81
2023-04-02T20:36:13.671Z,97113.25
2023-04-02T20:38:42.073Z,97170.53
2023-04-02T20:41:11.601Z,97223.66
2023-04-02T20:43:40.711Z,97230.75
2023-04-02T20:46:12.546Z,97161.84
2023-04-02T20:48:41.789Z,97223.66
2023-04-02T20:51:13.175Z,97186.41
2023-04-02T20:53:41.626Z,97218.16
2023-04-02T20:56:12.131Z,97221.72
2023-04-02T20:58:41.772Z,97211.81
2023-04-02T21:01:16.471Z,97241.78
2023-04-02T21:03:44.988Z,97224.50
2023-04-02T21:06:14.953Z,97252.41
2023-04-02T21:08:44.472Z,97166.13
2023-04-02T21:11:13.400Z,97290.75
2023-04-02T21:13:43.824Z,97210.75
2023-04-02T21:16:17.642Z,97290.53
2023-04-02T21:18:47.011Z,97224.31
2023-04-02T21:21:16.598Z,97256.56
2023-04-02T21:23:46.366Z,97249.94
2023-04-02T21:26:17.003Z,97273.34
2023-04-02T21:28:46.412Z,97234.81
2023-04-02T21:31:18.525Z,97183.88
2023-04-02T21:33:49.365Z,97264.81
2023-04-02T21:36:20.161Z,97253.88
2023-04-02T21:38:52.250Z,97265.81
2023-04-02T21:41:22.780Z,97266.06
2023-04-02T21:43:51.488Z,97281.25
2023-04-02T21:46:23.872Z,97265.13
2023-04-02T21:48:58.459Z,97277.19
2023-04-02T21:51:31.058Z,97210.16
2023-04-02T21:54:00.319Z,97255.94
2023-04-02T21:56:31.194Z,97325.94
2023-04-02T21:59:01.924Z,97231.38
2023-04-02T22:01:34.190Z,97312.50
2023-04-02T22:06:57.986Z,97301.75
2023-04-02T22:09:27.799Z,97278.34
2023-04-02T22:11:59.690Z,97289.25
2023-04-02T22:14:29.216Z,97275.91
2023-04-02T22:16:59.413Z,97295.94
2023-04-02T22:19:28.425Z,97312.19
2023-04-02T22:21:56.909Z,97285.31
2023-04-02T22:24:25.492Z,97269.50
2023-04-02T22:26:54.926Z,97306.78
2023-04-02T22:29:23.810Z,97334.16
2023-04-02T22:31:52.800Z,97315.19
2023-04-02T22:34:22.479Z,97289.41
2023-04-02T22:36:50.814Z,97271.03
2023-04-02T22:39:19.151Z,97298.97
2023-04-02T22:41:47.341Z,97264.06
2023-04-02T22:44:16.850Z,97300.31
2023-04-02T22:46:45.260Z,97304.88
2023-04-02T22:49:18.972Z,97345.94
2023-04-02T22:51:48.894Z,97240.97
2023-04-02T22:54:17.361Z,97294.47
2023-04-02T22:56:45.682Z,97375.50
2023-04-02T22:59:14.202Z,97301.34
2023-04-02T23:01:42.521Z,97334.47
2023-04-02T23:04:10.799Z,97313.66
2023-04-02T23:06:39.025Z,97296.88
2023-04-02T23:09:08.711Z,97258.66
2023-04-02T23:11:36.990Z,97291.34
2023-04-02T23:14:05.682Z,97298.66
2023-04-02T23:16:33.978Z,97308.97
2023-04-02T23:19:02.978Z,97295.09
2023-04-02T23:21:31.220Z,97268.44
2023-04-02T23:23:59.482Z,97323.25
2023-04-02T23:26:31.445Z,97319.66
2023-04-02T23:29:08.242Z,97281.16
2023-04-02T23:31:37.113Z,97283.22
2023-04-02T23:34:05.562Z,97315.09
2023-04-02T23:36:35.809Z,97314.69
2023-04-02T23:39:09.434Z,97308.88
2023-04-02T23:41:42.273Z,97331.16
2023-04-02T23:44:11.986Z,97280.91
2023-04-02T23:46:40.272Z,97307.19
2023-04-02T23:49:10.081Z,97321.97
2023-04-02T23:51:38.501Z,97304.69
2023-04-02T23:54:06.740Z,97281.41
2023-04-02T23:56:34.975Z,97228.50
2023-04-02T23:59:09.069Z,97330.31
